sensor_id;sensor_type;location;lat;lon;timestamp;pressure;altitude;pressure_sealevel;temperature;humidity
59757;BME280;45631;51.962;5.974;2022-11-25T00:01:23;100854.13;;;7.06;100.00
59757;BME280;45631;51.962;5.974;2022-11-25T00:03:54;100860.31;;;7.05;100.00
59757;BME280;45631;51.962;5.974;2022-11-25T00:06:25;100863.66;;;7.07;100.00
59757;BME280;45631;51.962;5.974;2022-11-25T00:08:55;100851.75;;;7.01;100.00
59757;BME280;45631;51.962;5.974;2022-11-25T00:11:24;100851.06;;;6.98;100.00
59757;BME280;45631;51.962;5.974;2022-11-25T00:13:54;100837.91;;;6.99;100.00
59757;BME280;45631;51.962;5.974;2022-11-25T00:16:24;100839.44;;;7.03;100.00
59757;BME280;45631;51.962;5.974;2022-11-25T00:18:54;100831.38;;;7.08;100.00
59757;BME280;45631;51.962;5.974;2022-11-25T00:21:26;100835.38;;;6.98;100.00
59757;BME280;45631;51.962;5.974;2022-11-25T00:23:56;100829.38;;;6.96;100.00
59757;BME280;45631;51.962;5.974;2022-11-25T00:26:25;100832.59;;;7.01;100.00
59757;BME280;45631;51.962;5.974;2022-11-25T00:28:54;100823.16;;;6.98;100.00
59757;BME280;45631;51.962;5.974;2022-11-25T00:31:26;100833.00;;;6.93;100.00
59757;BME280;45631;51.962;5.974;2022-11-25T00:33:55;100826.06;;;6.92;100.00
59757;BME280;45631;51.962;5.974;2022-11-25T00:36:26;100821.28;;;7.00;100.00
59757;BME280;45631;51.962;5.974;2022-11-25T00:38:56;100821.00;;;7.06;100.00
59757;BME280;45631;51.962;5.974;2022-11-25T00:41:26;100823.75;;;7.03;100.00
59757;BME280;45631;51.962;5.974;2022-11-25T00:44:09;100816.69;;;7.05;100.00
59757;BME280;45631;51.962;5.974;2022-11-25T00:46:55;100819.22;;;7.07;100.00
59757;BME280;45631;51.962;5.974;2022-11-25T00:49:23;100816.44;;;7.10;100.00
59757;BME280;45631;51.962;5.974;2022-11-25T00:51:53;100815.50;;;7.11;100.00
59757;BME280;45631;51.962;5.974;2022-11-25T00:54:22;100814.69;;;7.10;100.00
59757;BME280;45631;51.962;5.974;2022-11-25T00:56:51;100820.44;;;7.17;100.00
59757;BME280;45631;51.962;5.974;2022-11-25T00:59:19;100822.38;;;7.14;100.00
59757;BME280;45631;51.962;5.974;2022-11-25T01:01:47;100821.53;;;7.13;100.00
59757;BME280;45631;51.962;5.974;2022-11-25T01:04:15;100810.28;;;7.11;100.00
59757;BME280;45631;51.962;5.974;2022-11-25T01:06:43;100813.28;;;7.03;100.00
59757;BME280;45631;51.962;5.974;2022-11-25T01:09:13;100807.06;;;7.06;100.00
59757;BME280;45631;51.962;5.974;2022-11-25T01:11:41;100820.03;;;7.07;100.00
59757;BME280;45631;51.962;5.974;2022-11-25T01:14:09;100815.84;;;7.05;100.00
59757;BME280;45631;51.962;5.974;2022-11-25T01:16:37;100814.44;;;7.15;100.00
59757;BME280;45631;51.962;5.974;2022-11-25T01:19:05;100812.59;;;7.17;100.00
59757;BME280;45631;51.962;5.974;2022-11-25T01:21:34;100811.06;;;7.13;100.00
59757;BME280;45631;51.962;5.974;2022-11-25T01:24:03;100810.63;;;7.05;100.00
59757;BME280;45631;51.962;5.974;2022-11-25T01:26:34;100806.84;;;7.10;100.00
59757;BME280;45631;51.962;5.974;2022-11-25T01:29:04;100811.19;;;7.10;100.00
59757;BME280;45631;51.962;5.974;2022-11-25T01:31:34;100818.13;;;7.11;100.00
59757;BME280;45631;51.962;5.974;2022-11-25T01:34:05;100821.66;;;7.10;100.00
59757;BME280;45631;51.962;5.974;2022-11-25T01:36:33;100813.72;;;7.11;100.00
59757;BME280;45631;51.962;5.974;2022-11-25T01:39:01;100814.34;;;7.17;100.00
59757;BME280;45631;51.962;5.974;2022-11-25T01:41:31;100806.75;;;7.12;100.00
59757;BME280;45631;51.962;5.974;2022-11-25T01:44:11;100808.38;;;7.15;100.00
59757;BME280;45631;51.962;5.974;2022-11-25T01:46:53;100801.34;;;7.15;100.00
59757;BME280;45631;51.962;5.974;2022-11-25T01:49:26;100796.13;;;7.15;100.00
59757;BME280;45631;51.962;5.974;2022-11-25T01:52:00;100808.13;;;7.19;100.00
59757;BME280;45631;51.962;5.974;2022-11-25T01:54:33;100811.91;;;7.14;100.00
59757;BME280;45631;51.962;5.974;2022-11-25T01:57:05;100810.00;;;7.17;100.00
59757;BME280;45631;51.962;5.974;2022-11-25T01:59:38;100808.91;;;7.21;100.00
59757;BME280;45631;51.962;5.974;2022-11-25T02:02:08;100806.13;;;7.24;100.00
59757;BME280;45631;51.962;5.974;2022-11-25T02:04:38;100804.19;;;7.28;100.00
59757;BME280;45631;51.962;5.974;2022-11-25T02:07:11;100798.09;;;7.27;100.00
59757;BME280;45631;51.962;5.974;2022-11-25T02:09:42;100813.81;;;7.27;100.00
59757;BME280;45631;51.962;5.974;2022-11-25T02:12:13;100806.03;;;7.26;100.00
59757;BME280;45631;51.962;5.974;2022-11-25T02:14:45;100810.56;;;7.22;100.00
59757;BME280;45631;51.962;5.974;2022-11-25T02:17:13;100807.97;;;7.22;100.00
59757;BME280;45631;51.962;5.974;2022-11-25T02:19:53;100806.66;;;7.31;100.00
59757;BME280;45631;51.962;5.974;2022-11-25T02:22:28;100814.88;;;7.23;100.00
59757;BME280;45631;51.962;5.974;2022-11-25T02:25:07;100817.34;;;7.26;100.00
59757;BME280;45631;51.962;5.974;2022-11-25T02:27:36;100814.50;;;7.31;100.00
59757;BME280;45631;51.962;5.974;2022-11-25T02:30:05;100805.66;;;7.34;100.00
59757;BME280;45631;51.962;5.974;2022-11-25T02:32:34;100814.25;;;7.36;100.00
59757;BME280;45631;51.962;5.974;2022-11-25T02:35:23;100813.59;;;7.32;100.00
59757;BME280;45631;51.962;5.974;2022-11-25T02:37:54;100809.19;;;7.33;100.00
59757;BME280;45631;51.962;5.974;2022-11-25T02:40:26;100814.59;;;7.30;100.00
59757;BME280;45631;51.962;5.974;2022-11-25T02:42:57;100819.81;;;7.30;100.00
59757;BME280;45631;51.962;5.974;2022-11-25T02:45:32;100820.66;;;7.30;100.00
59757;BME280;45631;51.962;5.974;2022-11-25T02:48:04;100824.97;;;7.31;100.00
59757;BME280;45631;51.962;5.974;2022-11-25T02:50:32;100829.34;;;7.31;100.00
59757;BME280;45631;51.962;5.974;2022-11-25T02:53:00;100832.91;;;7.30;100.00
59757;BME280;45631;51.962;5.974;2022-11-25T02:55:30;100835.34;;;7.33;100.00
59757;BME280;45631;51.962;5.974;2022-11-25T02:57:58;100837.13;;;7.32;100.00
59757;BME280;45631;51.962;5.974;2022-11-25T03:00:26;100845.81;;;7.33;100.00
59757;BME280;45631;51.962;5.974;2022-11-25T03:02:54;100844.91;;;7.34;100.00
59757;BME280;45631;51.962;5.974;2022-11-25T03:05:23;100857.66;;;7.40;100.00
59757;BME280;45631;51.962;5.974;2022-11-25T03:07:51;100848.88;;;7.41;100.00
59757;BME280;45631;51.962;5.974;2022-11-25T03:10:19;100843.66;;;7.41;100.00
59757;BME280;45631;51.962;5.974;2022-11-25T03:12:49;100853.31;;;7.39;100.00
59757;BME280;45631;51.962;5.974;2022-11-25T03:15:17;100840.09;;;7.42;100.00
59757;BME280;45631;51.962;5.974;2022-11-25T03:17:45;100839.31;;;7.40;100.00
59757;BME280;45631;51.962;5.974;2022-11-25T03:20:14;100838.41;;;7.41;100.00
59757;BME280;45631;51.962;5.974;2022-11-25T03:22:42;100835.72;;;7.42;100.00
59757;BME280;45631;51.962;5.974;2022-11-25T03:25:11;100847.88;;;7.43;100.00
59757;BME280;45631;51.962;5.974;2022-11-25T03:27:40;100851.41;;;7.42;100.00
59757;BME280;45631;51.962;5.974;2022-11-25T03:30:12;100865.31;;;7.43;100.00
59757;BME280;45631;51.962;5.974;2022-11-25T03:32:41;100864.50;;;7.42;100.00
59757;BME280;45631;51.962;5.974;2022-11-25T03:35:12;100850.25;;;7.48;100.00
59757;BME280;45631;51.962;5.974;2022-11-25T03:37:40;100867.72;;;7.48;100.00
59757;BME280;45631;51.962;5.974;2022-11-25T03:40:10;100858.97;;;7.49;100.00
59757;BME280;45631;51.962;5.974;2022-11-25T03:42:39;100859.78;;;7.49;100.00
59757;BME280;45631;51.962;5.974;2022-11-25T03:45:11;100856.09;;;7.53;100.00
59757;BME280;45631;51.962;5.974;2022-11-25T03:47:40;100844.69;;;7.54;100.00
59757;BME280;45631;51.962;5.974;2022-11-25T03:50:10;100816.66;;;7.56;100.00
59757;BME280;45631;51.962;5.974;2022-11-25T03:52:39;100822.84;;;7.55;100.00
59757;BME280;45631;51.962;5.974;2022-11-25T03:55:09;100835.41;;;7.65;100.00
59757;BME280;45631;51.962;5.974;2022-11-25T03:57:39;100842.69;;;7.59;100.00
59757;BME280;45631;51.962;5.974;2022-11-25T04:00:08;100858.41;;;7.59;100.00
59757;BME280;45631;51.962;5.974;2022-11-25T04:02:38;100858.72;;;7.53;100.00
59757;BME280;45631;51.962;5.974;2022-11-25T04:05:06;100836.69;;;7.57;100.00
59757;BME280;45631;51.962;5.974;2022-11-25T04:07:34;100850.59;;;7.58;100.00
59757;BME280;45631;51.962;5.974;2022-11-25T04:10:03;100843.69;;;7.57;100.00
59757;BME280;45631;51.962;5.974;2022-11-25T04:12:31;100839.28;;;7.57;100.00
59757;BME280;45631;51.962;5.974;2022-11-25T04:15:14;100852.22;;;7.60;100.00
59757;BME280;45631;51.962;5.974;2022-11-25T04:17:45;100857.78;;;7.54;100.00
59757;BME280;45631;51.962;5.974;2022-11-25T04:20:13;100863.63;;;7.59;100.00
59757;BME280;45631;51.962;5.974;2022-11-25T04:22:41;100856.00;;;7.55;100.00
59757;BME280;45631;51.962;5.974;2022-11-25T04:25:10;100859.72;;;7.51;100.00
59757;BME280;45631;51.962;5.974;2022-11-25T04:27:38;100865.81;;;7.51;100.00
59757;BME280;45631;51.962;5.974;2022-11-25T04:30:09;100880.91;;;7.46;100.00
59757;BME280;45631;51.962;5.974;2022-11-25T04:32:37;100885.19;;;7.47;100.00
59757;BME280;45631;51.962;5.974;2022-11-25T04:35:08;100890.34;;;7.49;100.00
59757;BME280;45631;51.962;5.974;2022-11-25T04:37:36;100897.25;;;7.50;100.00
59757;BME280;45631;51.962;5.974;2022-11-25T04:40:05;100908.97;;;7.42;100.00
59757;BME280;45631;51.962;5.974;2022-11-25T04:42:33;100903.59;;;7.45;100.00
59757;BME280;45631;51.962;5.974;2022-11-25T04:45:05;100899.28;;;7.44;100.00
59757;BME280;45631;51.962;5.974;2022-11-25T04:47:49;100904.66;;;7.41;100.00
59757;BME280;45631;51.962;5.974;2022-11-25T04:50:20;100912.13;;;7.49;100.00
59757;BME280;45631;51.962;5.974;2022-11-25T04:52:49;100919.06;;;7.50;100.00
59757;BME280;45631;51.962;5.974;2022-11-25T04:55:17;100912.66;;;7.56;100.00
59757;BME280;45631;51.962;5.974;2022-11-25T04:57:45;100918.66;;;7.58;100.00
59757;BME280;45631;51.962;5.974;2022-11-25T05:00:14;100921.22;;;7.59;100.00
59757;BME280;45631;51.962;5.974;2022-11-25T05:02:42;100935.38;;;7.55;100.00
59757;BME280;45631;51.962;5.974;2022-11-25T05:05:10;100939.84;;;7.53;100.00
59757;BME280;45631;51.962;5.974;2022-11-25T05:07:39;100943.16;;;7.57;100.00
59757;BME280;45631;51.962;5.974;2022-11-25T05:10:08;100946.78;;;7.54;100.00
59757;BME280;45631;51.962;5.974;2022-11-25T05:12:36;100948.53;;;7.54;100.00
59757;BME280;45631;51.962;5.974;2022-11-25T05:15:06;100948.53;;;7.54;100.00
59757;BME280;45631;51.962;5.974;2022-11-25T05:17:36;100955.47;;;7.55;100.00
59757;BME280;45631;51.962;5.974;2022-11-25T05:20:06;100962.31;;;7.57;100.00
59757;BME280;45631;51.962;5.974;2022-11-25T05:22:34;100958.69;;;7.60;100.00
59757;BME280;45631;51.962;5.974;2022-11-25T05:25:04;100957.88;;;7.59;100.00
59757;BME280;45631;51.962;5.974;2022-11-25T05:27:32;100955.16;;;7.61;100.00
59757;BME280;45631;51.962;5.974;2022-11-25T05:30:00;100958.69;;;7.60;100.00
59757;BME280;45631;51.962;5.974;2022-11-25T05:32:31;100954.28;;;7.60;100.00
59757;BME280;45631;51.962;5.974;2022-11-25T05:34:59;100958.06;;;7.55;100.00
59757;BME280;45631;51.962;5.974;2022-11-25T05:37:27;100963.09;;;7.59;100.00
59757;BME280;45631;51.962;5.974;2022-11-25T05:39:55;100960.22;;;7.64;100.00
59757;BME280;45631;51.962;5.974;2022-11-25T05:42:25;100957.69;;;7.63;100.00
59757;BME280;45631;51.962;5.974;2022-11-25T05:44:58;100960.16;;;7.66;100.00
59757;BME280;45631;51.962;5.974;2022-11-25T05:47:27;100961.94;;;7.65;100.00
59757;BME280;45631;51.962;5.974;2022-11-25T05:49:55;100966.22;;;7.66;100.00
59757;BME280;45631;51.962;5.974;2022-11-25T05:52:23;100976.66;;;7.68;100.00
59757;BME280;45631;51.962;5.974;2022-11-25T05:54:51;100974.94;;;7.67;100.00
59757;BME280;45631;51.962;5.974;2022-11-25T05:57:24;100971.41;;;7.68;100.00
59757;BME280;45631;51.962;5.974;2022-11-25T05:59:54;100974.94;;;7.67;100.00
59757;BME280;45631;51.962;5.974;2022-11-25T06:02:22;100979.31;;;7.66;100.00
59757;BME280;45631;51.962;5.974;2022-11-25T06:04:50;100983.53;;;7.69;100.00
59757;BME280;45631;51.962;5.974;2022-11-25T06:07:18;100985.25;;;7.70;100.00
59757;BME280;45631;51.962;5.974;2022-11-25T06:09:46;100985.25;;;7.70;100.00
59757;BME280;45631;51.962;5.974;2022-11-25T06:12:14;100986.31;;;7.66;100.00
59757;BME280;45631;51.962;5.974;2022-11-25T06:14:45;100989.78;;;7.66;100.00
59757;BME280;45631;51.962;5.974;2022-11-25T06:17:13;100995.97;;;7.65;100.00
59757;BME280;45631;51.962;5.974;2022-11-25T06:19:41;100999.59;;;7.63;100.00
59757;BME280;45631;51.962;5.974;2022-11-25T06:22:12;101004.19;;;7.57;100.00
59757;BME280;45631;51.962;5.974;2022-11-25T06:24:40;101002.56;;;7.55;100.00
59757;BME280;45631;51.962;5.974;2022-11-25T06:27:10;101014.03;;;7.52;100.00
59757;BME280;45631;51.962;5.974;2022-11-25T06:29:38;101011.41;;;7.52;100.00
59757;BME280;45631;51.962;5.974;2022-11-25T06:32:07;101012.41;;;7.50;100.00
59757;BME280;45631;51.962;5.974;2022-11-25T06:34:36;101015.03;;;7.50;100.00
59757;BME280;45631;51.962;5.974;2022-11-25T06:37:07;101012.50;;;7.48;100.00
59757;BME280;45631;51.962;5.974;2022-11-25T06:39:35;101010.94;;;7.44;100.00
59757;BME280;45631;51.962;5.974;2022-11-25T06:42:03;101013.66;;;7.42;100.00
59757;BME280;45631;51.962;5.974;2022-11-25T06:44:34;101017.06;;;7.44;100.00
59757;BME280;45631;51.962;5.974;2022-11-25T06:47:02;101014.81;;;7.37;100.00
59757;BME280;45631;51.962;5.974;2022-11-25T06:49:32;101024.72;;;7.30;100.00
59757;BME280;45631;51.962;5.974;2022-11-25T06:52:00;101028.31;;;7.27;100.00
59757;BME280;45631;51.962;5.974;2022-11-25T06:54:28;101030.22;;;7.24;100.00
59757;BME280;45631;51.962;5.974;2022-11-25T06:56:56;101027.84;;;7.19;100.00
59757;BME280;45631;51.962;5.974;2022-11-25T06:59:24;101033.38;;;7.13;100.00
59757;BME280;45631;51.962;5.974;2022-11-25T07:01:56;101043.28;;;7.06;100.00
59757;BME280;45631;51.962;5.974;2022-11-25T07:04:24;101046.09;;;7.02;100.00
59757;BME280;45631;51.962;5.974;2022-11-25T07:06:53;101045.47;;;6.97;100.00
59757;BME280;45631;51.962;5.974;2022-11-25T07:09:21;101058.06;;;6.88;100.00
59757;BME280;45631;51.962;5.974;2022-11-25T07:11:50;101052.28;;;6.82;100.00
59757;BME280;45631;51.962;5.974;2022-11-25T07:14:18;101059.47;;;6.76;100.00
59757;BME280;45631;51.962;5.974;2022-11-25T07:16:47;101065.78;;;6.72;100.00
59757;BME280;45631;51.962;5.974;2022-11-25T07:19:16;101063.84;;;6.76;100.00
59757;BME280;45631;51.962;5.974;2022-11-25T07:21:45;101064.00;;;6.73;100.00
59757;BME280;45631;51.962;5.974;2022-11-25T07:24:15;101073.38;;;6.77;100.00
59757;BME280;45631;51.962;5.974;2022-11-25T07:26:44;101073.47;;;6.75;100.00
59757;BME280;45631;51.962;5.974;2022-11-25T07:29:13;101077.06;;;6.73;100.00
59757;BME280;45631;51.962;5.974;2022-11-25T07:32:03;101080.81;;;6.67;100.00
59757;BME280;45631;51.962;5.974;2022-11-25T07:34:36;101082.69;;;6.64;100.00
59757;BME280;45631;51.962;5.974;2022-11-25T07:37:04;101086.28;;;6.61;100.00
59757;BME280;45631;51.962;5.974;2022-11-25T07:39:34;101095.97;;;6.59;100.00
59757;BME280;45631;51.962;5.974;2022-11-25T07:42:03;101094.44;;;6.55;100.00
59757;BME280;45631;51.962;5.974;2022-11-25T07:44:31;101104.88;;;6.55;100.00
59757;BME280;45631;51.962;5.974;2022-11-25T07:46:59;101102.34;;;6.53;100.00
59757;BME280;45631;51.962;5.974;2022-11-25T07:49:27;101112.00;;;6.51;100.00
59757;BME280;45631;51.962;5.974;2022-11-25T07:51:57;101116.31;;;6.52;100.00
59757;BME280;45631;51.962;5.974;2022-11-25T07:54:26;101116.56;;;6.46;100.00
59757;BME280;45631;51.962;5.974;2022-11-25T07:56:55;101114.59;;;6.51;100.00
59757;BME280;45631;51.962;5.974;2022-11-25T07:59:23;101118.72;;;6.57;100.00
59757;BME280;45631;51.962;5.974;2022-11-25T08:01:53;101129.16;;;6.57;100.00
59757;BME280;45631;51.962;5.974;2022-11-25T08:04:22;101128.06;;;6.63;100.00
59757;BME280;45631;51.962;5.974;2022-11-25T08:06:51;101130.13;;;6.75;100.00
59757;BME280;45631;51.962;5.974;2022-11-25T08:09:21;101138.75;;;6.77;100.00
59757;BME280;45631;51.962;5.974;2022-11-25T08:11:49;101140.81;;;6.89;100.00
59757;BME280;45631;51.962;5.974;2022-11-25T08:14:19;101142.22;;;6.97;100.00
59757;BME280;45631;51.962;5.974;2022-11-25T08:16:48;101152.00;;;7.12;100.00
59757;BME280;45631;51.962;5.974;2022-11-25T08:19:18;101140.25;;;7.21;100.00
59757;BME280;45631;51.962;5.974;2022-11-25T08:21:46;101152.09;;;7.30;100.00
59757;BME280;45631;51.962;5.974;2022-11-25T08:24:16;101154.47;;;7.34;100.00
59757;BME280;45631;51.962;5.974;2022-11-25T08:26:44;101159.22;;;7.45;100.00
59757;BME280;45631;51.962;5.974;2022-11-25T08:29:14;101159.69;;;7.53;100.00
59757;BME280;45631;51.962;5.974;2022-11-25T08:31:43;101168.25;;;7.57;100.00
59757;BME280;45631;51.962;5.974;2022-11-25T08:34:16;101167.47;;;7.55;100.00
59757;BME280;45631;51.962;5.974;2022-11-25T08:36:44;101173.25;;;7.61;100.00
59757;BME280;45631;51.962;5.974;2022-11-25T08:39:16;101172.19;;;7.66;100.00
59757;BME280;45631;51.962;5.974;2022-11-25T08:42:05;101177.34;;;7.67;100.00
59757;BME280;45631;51.962;5.974;2022-11-25T08:44:33;101179.69;;;7.73;100.00
59757;BME280;45631;51.962;5.974;2022-11-25T08:47:03;101184.78;;;7.76;100.00
59757;BME280;45631;51.962;5.974;2022-11-25T08:49:31;101186.47;;;7.77;100.00
59757;BME280;45631;51.962;5.974;2022-11-25T08:52:07;101183.72;;;7.81;100.00
59757;BME280;45631;51.962;5.974;2022-11-25T08:54:36;101189.50;;;7.87;100.00
59757;BME280;45631;51.962;5.974;2022-11-25T08:57:04;101194.56;;;7.90;100.00
59757;BME280;45631;51.962;5.974;2022-11-25T08:59:33;101196.00;;;7.98;100.00
59757;BME280;45631;51.962;5.974;2022-11-25T09:02:03;101197.53;;;8.02;100.00
59757;BME280;45631;51.962;5.974;2022-11-25T09:04:32;101192.34;;;8.00;100.00
59757;BME280;45631;51.962;5.974;2022-11-25T09:07:02;101198.06;;;8.08;100.00
59757;BME280;45631;51.962;5.974;2022-11-25T09:09:33;101199.00;;;8.07;100.00
59757;BME280;45631;51.962;5.974;2022-11-25T09:12:02;101203.09;;;8.13;100.00
59757;BME280;45631;51.962;5.974;2022-11-25T09:14:30;101200.31;;;8.16;100.00
59757;BME280;45631;51.962;5.974;2022-11-25T09:16:58;101206.94;;;8.23;100.00
59757;BME280;45631;51.962;5.974;2022-11-25T09:19:29;101208.56;;;8.26;100.00
59757;BME280;45631;51.962;5.974;2022-11-25T09:21:57;101211.81;;;8.31;100.00
59757;BME280;45631;51.962;5.974;2022-11-25T09:24:25;101208.19;;;8.34;100.00
59757;BME280;45631;51.962;5.974;2022-11-25T09:26:53;101221.78;;;8.42;100.00
59757;BME280;45631;51.962;5.974;2022-11-25T09:29:21;101222.00;;;8.55;100.00
59757;BME280;45631;51.962;5.974;2022-11-25T09:31:49;101224.97;;;8.66;100.00
59757;BME280;45631;51.962;5.974;2022-11-25T09:34:20;101233.03;;;8.79;100.00
59757;BME280;45631;51.962;5.974;2022-11-25T09:36:50;101235.19;;;8.88;100.00
59757;BME280;45631;51.962;5.974;2022-11-25T09:39:18;101243.56;;;9.12;100.00
59757;BME280;45631;51.962;5.974;2022-11-25T09:41:59;101250.31;;;9.34;100.00
59757;BME280;45631;51.962;5.974;2022-11-25T09:44:59;101249.00;;;9.75;100.00
59757;BME280;45631;51.962;5.974;2022-11-25T09:47:55;101260.44;;;9.90;100.00
59757;BME280;45631;51.962;5.974;2022-11-25T09:50:38;101254.38;;;10.04;100.00
59757;BME280;45631;51.962;5.974;2022-11-25T09:53:33;101266.66;;;10.19;100.00
59757;BME280;45631;51.962;5.974;2022-11-25T09:56:13;101272.22;;;10.29;100.00
59757;BME280;45631;51.962;5.974;2022-11-25T09:58:50;101268.94;;;10.25;100.00
59757;BME280;45631;51.962;5.974;2022-11-25T10:01:24;101281.09;;;10.12;100.00
59757;BME280;45631;51.962;5.974;2022-11-25T10:03:57;101291.19;;;10.04;100.00
59757;BME280;45631;51.962;5.974;2022-11-25T10:06:27;101283.03;;;9.92;100.00
59757;BME280;45631;51.962;5.974;2022-11-25T10:09:00;101290.75;;;9.79;100.00
59757;BME280;45631;51.962;5.974;2022-11-25T10:11:37;101292.03;;;9.72;100.00
59757;BME280;45631;51.962;5.974;2022-11-25T10:14:17;101285.75;;;9.75;100.00
59757;BME280;45631;51.962;5.974;2022-11-25T10:16:50;101295.56;;;9.71;100.00
59757;BME280;45631;51.962;5.974;2022-11-25T10:19:23;101291.50;;;9.66;100.00
59757;BME280;45631;51.962;5.974;2022-11-25T10:21:55;101299.09;;;9.54;100.00
59757;BME280;45631;51.962;5.974;2022-11-25T10:24:25;101308.59;;;9.57;100.00
59757;BME280;45631;51.962;5.974;2022-11-25T10:26:56;101307.50;;;9.61;100.00
59757;BME280;45631;51.962;5.974;2022-11-25T10:29:28;101308.69;;;9.55;100.00
59757;BME280;45631;51.962;5.974;2022-11-25T10:32:10;101307.41;;;9.46;100.00
59757;BME280;45631;51.962;5.974;2022-11-25T10:34:47;101309.09;;;9.47;100.00
59757;BME280;45631;51.962;5.974;2022-11-25T10:37:26;101309.03;;;9.49;100.00
59757;BME280;45631;51.962;5.974;2022-11-25T10:39:57;101313.50;;;9.47;100.00
59757;BME280;45631;51.962;5.974;2022-11-25T10:42:27;101314.34;;;9.47;100.00
59757;BME280;45631;51.962;5.974;2022-11-25T10:44:56;101316.28;;;9.44;100.00
59757;BME280;45631;51.962;5.974;2022-11-25T10:47:35;101313.66;;;9.44;100.00
59757;BME280;45631;51.962;5.974;2022-11-25T10:50:12;101326.69;;;9.45;100.00
59757;BME280;45631;51.962;5.974;2022-11-25T10:52:47;101324.16;;;9.44;100.00
59757;BME280;45631;51.962;5.974;2022-11-25T10:55:20;101326.22;;;9.55;100.00
59757;BME280;45631;51.962;5.974;2022-11-25T10:57:50;101328.34;;;9.64;100.00
59757;BME280;45631;51.962;5.974;2022-11-25T11:00:32;101330.13;;;9.63;100.00
59757;BME280;45631;51.962;5.974;2022-11-25T11:03:13;101331.00;;;9.64;100.00
59757;BME280;45631;51.962;5.974;2022-11-25T11:05:46;101340.63;;;9.63;100.00
59757;BME280;45631;51.962;5.974;2022-11-25T11:08:19;101338.78;;;9.66;100.00
59757;BME280;45631;51.962;5.974;2022-11-25T11:11:08;101339.53;;;9.68;100.00
59757;BME280;45631;51.962;5.974;2022-11-25T11:13:37;101340.22;;;9.71;100.00
59757;BME280;45631;51.962;5.974;2022-11-25T11:16:20;101347.28;;;9.71;100.00
59757;BME280;45631;51.962;5.974;2022-11-25T11:18:50;101346.22;;;9.73;100.00
59757;BME280;45631;51.962;5.974;2022-11-25T11:21:24;101353.97;;;9.76;100.00
59757;BME280;45631;51.962;5.974;2022-11-25T11:23:55;101361.16;;;9.73;100.00
59757;BME280;45631;51.962;5.974;2022-11-25T11:26:28;101367.09;;;9.76;100.00
59757;BME280;45631;51.962;5.974;2022-11-25T11:29:00;101372.50;;;9.73;100.00
59757;BME280;45631;51.962;5.974;2022-11-25T11:31:32;101372.00;;;9.82;100.00
59757;BME280;45631;51.962;5.974;2022-11-25T11:34:09;101377.19;;;9.84;100.00
59757;BME280;45631;51.962;5.974;2022-11-25T11:37:01;101372.00;;;9.82;100.00
59757;BME280;45631;51.962;5.974;2022-11-25T11:39:43;101379.88;;;9.82;100.00
59757;BME280;45631;51.962;5.974;2022-11-25T11:42:22;101385.06;;;9.84;100.00
59757;BME280;45631;51.962;5.974;2022-11-25T11:45:02;101394.03;;;9.80;100.00
59757;BME280;45631;51.962;5.974;2022-11-25T11:47:51;101397.03;;;9.90;100.00
59757;BME280;45631;51.962;5.974;2022-11-25T11:50:29;101400.78;;;10.02;100.00
59757;BME280;45631;51.962;5.974;2022-11-25T11:53:01;101397.13;;;10.04;100.00
59757;BME280;45631;51.962;5.974;2022-11-25T11:55:47;101404.84;;;10.07;100.00
59757;BME280;45631;51.962;5.974;2022-11-25T11:58:52;101401.06;;;10.13;100.00
59757;BME280;45631;51.962;5.974;2022-11-25T12:01:35;101413.16;;;10.15;100.00
59757;BME280;45631;51.962;5.974;2022-11-25T12:04:14;101408.84;;;10.14;100.00
59757;BME280;45631;51.962;5.974;2022-11-25T12:06:52;101406.81;;;10.20;100.00
59757;BME280;45631;51.962;5.974;2022-11-25T12:09:25;101407.75;;;10.19;100.00
59757;BME280;45631;51.962;5.974;2022-11-25T12:12:01;101417.00;;;10.26;100.00
59757;BME280;45631;51.962;5.974;2022-11-25T12:14:37;101419.63;;;10.26;100.00
59757;BME280;45631;51.962;5.974;2022-11-25T12:17:16;101421.84;;;10.34;100.00
59757;BME280;45631;51.962;5.974;2022-11-25T12:19:52;101426.78;;;10.40;100.00
59757;BME280;45631;51.962;5.974;2022-11-25T12:22:25;101420.50;;;10.42;100.00
59757;BME280;45631;51.962;5.974;2022-11-25T12:25:02;101432.81;;;10.42;100.00
59757;BME280;45631;51.962;5.974;2022-11-25T12:27:34;101441.22;;;10.48;100.00
59757;BME280;45631;51.962;5.974;2022-11-25T12:30:09;101446.22;;;10.53;100.00
59757;BME280;45631;51.962;5.974;2022-11-25T12:32:55;101443.31;;;10.58;100.00
59757;BME280;45631;51.962;5.974;2022-11-25T12:35:42;101446.47;;;10.64;100.00
59757;BME280;45631;51.962;5.974;2022-11-25T12:38:20;101449.78;;;10.68;100.00
59757;BME280;45631;51.962;5.974;2022-11-25T12:40:58;101453.84;;;10.74;100.00
59757;BME280;45631;51.962;5.974;2022-11-25T12:43:35;101458.59;;;10.83;100.00
59757;BME280;45631;51.962;5.974;2022-11-25T12:46:14;101451.63;;;10.82;100.00
59757;BME280;45631;51.962;5.974;2022-11-25T12:48:46;101452.13;;;10.89;100.00
59757;BME280;45631;51.962;5.974;2022-11-25T12:51:40;101464.69;;;10.83;100.00
59757;BME280;45631;51.962;5.974;2022-11-25T12:54:23;101465.28;;;10.89;100.00
59757;BME280;45631;51.962;5.974;2022-11-25T12:57:22;101476.50;;;10.92;100.00
59757;BME280;45631;51.962;5.974;2022-11-25T13:00:05;101482.69;;;10.91;100.00
59757;BME280;45631;51.962;5.974;2022-11-25T13:03:28;101488.13;;;10.88;100.00
59757;BME280;45631;51.962;5.974;2022-11-25T13:06:16;101491.97;;;10.82;100.00
59757;BME280;45631;51.962;5.974;2022-11-25T13:09:01;101498.75;;;10.87;100.00
59757;BME280;45631;51.962;5.974;2022-11-25T13:12:08;101498.75;;;10.87;100.00
59757;BME280;45631;51.962;5.974;2022-11-25T13:17:40;101497.97;;;11.01;100.00